Time;durP1;ratioP1;P1;durP2;ratioP2;P2;SDS_P1;SDS_P2;PMS_P1;PMS_P2;Temp;Humidity;BMP_temperature;BMP_pressure;BME280_temperature;BME280_humidity;BME280_pressure;Samples;Min_cycle;Max_cycle;Signal;HPM_P1;HPM_P2
2022/03/04 00:00:58;;;;;;;23.30;16.70;;;7.20;94.50;;;;;;5016125;28;20259;-36
2022/03/04 00:03:26;;;;;;;24.80;16.23;;;7.10;94.50;;;;;;5018452;28;20318;-37
2022/03/04 00:05:58;;;;;;;23.07;15.87;;;7.10;94.50;;;;;;5010117;28;20208;-37
2022/03/04 00:08:27;;;;;;;20.67;15.53;;;7.10;94.50;;;;;;5021318;28;20731;-37
2022/03/04 00:10:55;;;;;;;21.77;15.17;;;7.10;94.50;;;;;;5011268;28;20212;-38
2022/03/04 00:13:22;;;;;;;25.03;16.83;;;7.10;94.50;;;;;;5007814;28;20209;-38
2022/03/04 00:15:58;;;;;;;23.03;16.07;;;7.00;94.40;;;;;;5001744;28;20223;-38
2022/03/04 00:18:26;;;;;;;25.23;17.00;;;7.00;94.40;;;;;;5007926;28;20317;-38
2022/03/04 00:20:56;;;;;;;23.83;15.70;;;7.00;94.40;;;;;;4995115;28;20470;-38
2022/03/04 00:23:25;;;;;;;25.07;16.90;;;7.00;94.40;;;;;;5024739;28;20200;-38
2022/03/04 00:25:55;;;;;;;21.53;15.50;;;6.90;94.40;;;;;;5024334;28;20213;-38
2022/03/04 00:28:23;;;;;;;23.23;16.00;;;6.90;94.40;;;;;;5015900;28;20271;-38
2022/03/04 00:30:50;;;;;;;20.97;15.43;;;6.90;94.40;;;;;;5007759;28;20248;-39
2022/03/04 00:33:20;;;;;;;24.83;15.93;;;6.90;94.30;;;;;;5013907;28;20708;-38
2022/03/04 00:35:52;;;;;;;25.17;15.87;;;6.90;94.30;;;;;;5024656;28;20745;-38
2022/03/04 00:38:24;;;;;;;24.33;15.73;;;6.80;94.30;;;;;;5014757;28;20209;-40
2022/03/04 00:40:54;;;;;;;26.40;16.17;;;6.80;94.30;;;;;;5023614;28;20212;-39
2022/03/04 00:43:23;;;;;;;24.03;16.17;;;6.70;94.30;;;;;;5016943;28;20197;-39
2022/03/04 00:45:53;;;;;;;23.97;16.77;;;6.70;94.30;;;;;;5018131;28;20547;-40
2022/03/04 00:48:21;;;;;;;23.33;16.63;;;6.70;94.30;;;;;;5030023;28;20371;-39
2022/03/04 00:50:50;;;;;;;25.97;15.80;;;6.60;94.20;;;;;;5030842;28;20564;-40
2022/03/04 00:53:18;;;;;;;23.43;16.17;;;6.60;94.20;;;;;;5026288;28;20233;-39
2022/03/04 00:55:45;;;;;;;22.17;15.37;;;6.60;94.20;;;;;;5026155;28;20212;-40
2022/03/04 00:58:15;;;;;;;23.47;15.03;;;6.50;94.10;;;;;;5011020;28;20245;-39
2022/03/04 01:00:45;;;;;;;24.57;16.07;;;6.50;94.10;;;;;;4994446;28;20296;-40
2022/03/04 01:03:13;;;;;;;26.60;15.90;;;6.50;94.10;;;;;;5011828;28;20664;-39
2022/03/04 01:05:43;;;;;;;26.83;17.50;;;6.40;94.10;;;;;;5011814;28;20658;-40
2022/03/04 01:08:13;;;;;;;23.93;15.90;;;6.40;94.10;;;;;;4997023;28;20742;-40
2022/03/04 01:10:40;;;;;;;21.80;16.17;;;6.40;94.10;;;;;;5011326;28;20668;-39
2022/03/04 01:13:10;;;;;;;22.40;14.80;;;6.40;94.10;;;;;;5016811;28;20221;-40
2022/03/04 01:15:39;;;;;;;24.80;17.47;;;6.30;94.10;;;;;;5019590;28;20259;-37
2022/03/04 01:18:09;;;;;;;24.93;17.03;;;6.30;94.00;;;;;;4997409;28;20219;-41
2022/03/04 01:20:42;;;;;;;20.43;15.83;;;6.30;94.10;;;;;;5031324;28;20200;-40
2022/03/04 01:23:09;;;;;;;25.43;16.80;;;6.30;94.10;;;;;;5026656;28;20256;-38
2022/03/04 01:25:38;;;;;;;24.53;16.17;;;6.20;94.00;;;;;;4997416;28;20546;-38
2022/03/04 01:28:05;;;;;;;23.47;16.53;;;6.20;94.00;;;;;;5017894;28;20725;-38
2022/03/04 01:30:32;;;;;;;25.43;16.00;;;6.20;94.00;;;;;;5028366;28;20209;-38
2022/03/04 01:33:00;;;;;;;25.10;16.97;;;6.20;94.00;;;;;;5016656;28;20322;-38
2022/03/04 01:35:27;;;;;;;23.17;15.50;;;6.10;93.90;;;;;;5010570;28;20198;-38
2022/03/04 01:37:55;;;;;;;23.57;15.57;;;6.10;93.90;;;;;;4992681;28;20213;-38
2022/03/04 01:40:22;;;;;;;24.33;15.80;;;6.10;93.90;;;;;;4993961;28;20210;-38
2022/03/04 01:42:49;;;;;;;22.57;15.67;;;6.10;93.90;;;;;;5024837;28;20741;-38
2022/03/04 01:45:17;;;;;;;22.83;16.30;;;6.10;93.90;;;;;;5028804;28;20643;-38
2022/03/04 01:47:44;;;;;;;22.77;15.30;;;6.10;94.00;;;;;;5020972;28;20276;-38
2022/03/04 01:50:16;;;;;;;22.80;15.20;;;6.00;93.90;;;;;;5021920;28;20415;-38
2022/03/04 01:52:44;;;;;;;21.73;15.80;;;6.00;93.90;;;;;;5018613;28;20240;-38
2022/03/04 01:55:14;;;;;;;23.37;16.00;;;6.00;93.90;;;;;;5015800;28;20333;-38
2022/03/04 01:57:44;;;;;;;24.17;15.60;;;6.00;94.00;;;;;;4993311;28;20221;-38
2022/03/04 02:00:13;;;;;;;24.53;15.73;;;6.00;94.00;;;;;;5012052;28;20205;-38
2022/03/04 02:02:42;;;;;;;22.03;15.10;;;5.90;93.90;;;;;;5023699;28;20628;-38
2022/03/04 02:05:19;;;;;;;25.87;15.43;;;5.90;93.90;;;;;;5013240;28;20217;-38
2022/03/04 02:07:46;;;;;;;23.67;16.10;;;5.90;93.90;;;;;;5018499;28;20201;-38
2022/03/04 02:10:13;;;;;;;22.40;15.60;;;5.90;93.90;;;;;;5011611;28;20201;-38
2022/03/04 02:12:40;;;;;;;25.93;17.07;;;5.80;93.90;;;;;;5021267;28;20206;-38
2022/03/04 02:15:12;;;;;;;24.03;16.57;;;5.80;93.90;;;;;;5027722;28;20247;-38
2022/03/04 02:17:40;;;;;;;27.43;16.87;;;5.80;93.90;;;;;;5028721;28;20204;-38
2022/03/04 02:20:07;;;;;;;23.53;15.90;;;5.80;93.90;;;;;;5006437;28;20205;-38
2022/03/04 02:22:37;;;;;;;26.63;16.30;;;5.70;93.90;;;;;;5022803;28;20234;-38
2022/03/04 02:25:05;;;;;;;25.80;16.90;;;5.70;93.90;;;;;;5021187;28;20644;-38
2022/03/04 02:27:33;;;;;;;26.90;16.10;;;5.60;93.80;;;;;;4995071;28;20205;-38
2022/03/04 02:30:06;;;;;;;23.47;16.90;;;5.60;93.80;;;;;;5014637;28;20209;-38
2022/03/04 02:32:36;;;;;;;22.37;16.47;;;5.60;93.90;;;;;;5022732;28;20233;-38
2022/03/04 02:35:03;;;;;;;25.03;16.87;;;5.50;93.80;;;;;;5026555;28;20215;-38
2022/03/04 02:37:34;;;;;;;24.03;16.80;;;5.50;93.80;;;;;;5024681;28;20695;-38
2022/03/04 02:40:05;;;;;;;27.43;16.60;;;5.40;93.80;;;;;;5001767;28;20209;-38
2022/03/04 02:42:32;;;;;;;26.27;16.93;;;5.40;93.80;;;;;;5016430;28;20278;-38
2022/03/04 02:45:02;;;;;;;24.27;16.47;;;5.40;94.00;;;;;;5018136;28;20201;-38
2022/03/04 02:47:35;;;;;;;24.63;16.50;;;5.30;93.70;;;;;;5012177;28;20272;-38
2022/03/04 02:50:06;;;;;;;21.77;15.53;;;5.30;93.70;;;;;;5009476;28;20197;-38
2022/03/04 02:52:36;;;;;;;22.87;16.27;;;5.30;93.70;;;;;;5020507;28;20236;-38
2022/03/04 02:55:05;;;;;;;26.37;16.53;;;5.20;93.70;;;;;;5022910;28;20220;-38
2022/03/04 02:57:37;;;;;;;22.73;16.03;;;5.20;93.70;;;;;;5024738;28;20232;-39
2022/03/04 03:00:10;;;;;;;22.60;15.53;;;5.20;93.70;;;;;;5008947;28;20205;-38
2022/03/04 03:02:37;;;;;;;22.37;15.43;;;5.20;93.70;;;;;;5020928;28;20213;-38
2022/03/04 03:05:07;;;;;;;25.63;16.07;;;5.10;93.70;;;;;;5028982;28;20295;-38
2022/03/04 03:07:40;;;;;;;23.67;16.03;;;5.10;93.70;;;;;;5028049;28;20209;-38
2022/03/04 03:10:08;;;;;;;22.90;15.97;;;5.10;93.70;;;;;;5027998;28;20227;-38
2022/03/04 03:12:40;;;;;;;21.93;15.83;;;5.10;93.70;;;;;;5012669;28;20221;-38
2022/03/04 03:15:09;;;;;;;23.03;15.33;;;5.00;93.70;;;;;;5009645;28;20700;-38
2022/03/04 03:17:39;;;;;;;22.67;15.50;;;5.10;93.70;;;;;;5008467;28;20565;-38
2022/03/04 03:20:14;;;;;;;23.27;14.97;;;5.10;93.70;;;;;;5008545;28;20217;-39
2022/03/04 03:22:41;;;;;;;24.63;15.27;;;5.10;93.70;;;;;;5011453;28;20255;-38
2022/03/04 03:25:08;;;;;;;23.33;15.20;;;5.10;93.70;;;;;;5007998;28;20213;-38
2022/03/04 03:27:38;;;;;;;20.67;14.53;;;5.10;93.70;;;;;;5008764;28;20233;-38
2022/03/04 03:30:07;;;;;;;22.77;15.20;;;5.10;93.70;;;;;;5008908;28;20232;-38
2022/03/04 03:32:37;;;;;;;22.80;15.17;;;5.10;93.70;;;;;;5013534;28;20533;-39
2022/03/04 03:35:09;;;;;;;26.17;16.40;;;5.00;93.60;;;;;;5003595;28;20259;-38
2022/03/04 03:37:40;;;;;;;22.30;14.93;;;5.00;93.70;;;;;;5021098;28;20216;-38
2022/03/04 03:40:11;;;;;;;23.70;15.20;;;5.00;93.60;;;;;;5019653;28;20205;-38
2022/03/04 03:42:41;;;;;;;22.57;15.30;;;5.00;93.60;;;;;;4994111;28;20284;-38
2022/03/04 03:45:10;;;;;;;21.07;14.87;;;5.00;93.60;;;;;;5018665;28;20216;-38
2022/03/04 03:47:41;;;;;;;24.10;15.47;;;5.00;93.60;;;;;;4999812;28;20225;-38
2022/03/04 03:50:12;;;;;;;23.47;15.60;;;5.00;93.70;;;;;;5019474;28;20233;-38
2022/03/04 03:52:40;;;;;;;21.30;15.10;;;5.00;93.70;;;;;;5022687;28;20264;-38
2022/03/04 03:55:12;;;;;;;21.20;15.60;;;5.00;93.70;;;;;;5027648;28;20230;-38
2022/03/04 03:57:39;;;;;;;23.57;15.73;;;5.00;93.70;;;;;;5022848;28;20228;-37
2022/03/04 04:00:10;;;;;;;23.30;15.80;;;5.00;93.70;;;;;;5009689;28;20208;-38
2022/03/04 04:02:41;;;;;;;23.57;15.70;;;4.90;93.60;;;;;;5023560;28;20212;-37
2022/03/04 04:05:13;;;;;;;24.53;15.40;;;4.90;93.70;;;;;;5010826;28;20213;-37
2022/03/04 04:07:41;;;;;;;22.97;15.63;;;4.90;93.60;;;;;;5010903;28;20210;-37
2022/03/04 04:10:08;;;;;;;23.90;15.27;;;4.90;93.70;;;;;;5009721;28;20205;-37
2022/03/04 04:12:36;;;;;;;23.00;15.03;;;4.90;93.60;;;;;;5022003;28;20759;-37
2022/03/04 04:15:03;;;;;;;22.87;15.60;;;4.90;93.70;;;;;;5028099;28;20609;-37
2022/03/04 04:17:33;;;;;;;22.30;15.13;;;4.80;93.60;;;;;;5027414;28;20577;-37
2022/03/04 04:20:01;;;;;;;23.50;15.73;;;4.80;93.60;;;;;;5021269;28;20292;-37
2022/03/04 04:22:28;;;;;;;23.30;15.30;;;4.80;93.90;;;;;;5008717;28;20216;-38
2022/03/04 04:24:59;;;;;;;23.60;15.53;;;4.80;93.60;;;;;;5030320;28;20220;-38
2022/03/04 04:27:27;;;;;;;23.47;15.60;;;4.80;93.70;;;;;;5024938;28;20205;-38
2022/03/04 04:29:54;;;;;;;23.43;15.23;;;4.80;93.60;;;;;;5016869;28;20572;-38
2022/03/04 04:32:24;;;;;;;21.50;15.10;;;4.80;93.60;;;;;;5012179;28;20989;-38
2022/03/04 04:34:51;;;;;;;22.70;15.13;;;4.70;93.60;;;;;;5028909;28;20232;-38
2022/03/04 04:37:18;;;;;;;24.00;15.67;;;4.70;93.60;;;;;;4998007;28;20209;-38
2022/03/04 04:39:47;;;;;;;23.20;15.87;;;4.70;93.60;;;;;;5026143;28;20224;-38
2022/03/04 04:42:17;;;;;;;21.30;14.93;;;4.80;93.60;;;;;;5007483;28;20316;-38
2022/03/04 04:44:44;;;;;;;23.40;15.73;;;4.80;93.70;;;;;;5027350;28;20675;-38
2022/03/04 04:47:16;;;;;;;21.20;15.00;;;4.70;93.60;;;;;;5027759;28;20196;-38
2022/03/04 04:49:44;;;;;;;24.23;16.40;;;4.70;93.60;;;;;;4998438;28;20213;-38
2022/03/04 04:52:15;;;;;;;22.57;14.80;;;4.70;93.60;;;;;;5012244;28;20603;-38
2022/03/04 04:54:43;;;;;;;25.67;16.67;;;4.70;93.60;;;;;;5028522;28;20332;-38
2022/03/04 04:57:10;;;;;;;23.63;15.70;;;4.60;93.60;;;;;;5027162;28;20213;-38
2022/03/04 04:59:40;;;;;;;24.40;15.40;;;4.60;93.60;;;;;;5030753;28;20209;-38
2022/03/04 05:02:07;;;;;;;22.43;15.73;;;4.60;93.60;;;;;;5028328;28;20572;-38
2022/03/04 05:04:37;;;;;;;23.17;15.60;;;4.60;93.60;;;;;;5023106;28;20215;-38
2022/03/04 05:07:04;;;;;;;24.30;16.10;;;4.50;93.50;;;;;;5010960;28;20590;-38
2022/03/04 05:09:31;;;;;;;22.30;15.70;;;4.50;93.50;;;;;;5011519;28;20747;-38
2022/03/04 05:12:01;;;;;;;24.37;15.77;;;4.50;93.50;;;;;;5023384;28;20211;-38
2022/03/04 05:14:33;;;;;;;21.67;15.63;;;4.40;93.50;;;;;;5022921;28;20220;-38
2022/03/04 05:17:00;;;;;;;24.30;15.53;;;4.50;93.60;;;;;;5027751;28;20639;-38
2022/03/04 05:19:30;;;;;;;21.57;15.47;;;4.40;93.50;;;;;;5030181;28;20266;-40
2022/03/04 05:22:00;;;;;;;25.13;15.70;;;4.40;93.60;;;;;;5029027;28;20204;-40
2022/03/04 05:24:30;;;;;;;22.70;15.07;;;4.40;93.50;;;;;;5012631;28;20221;-38
2022/03/04 05:26:59;;;;;;;22.77;15.90;;;4.30;93.50;;;;;;5017410;28;20239;-38
2022/03/04 05:29:31;;;;;;;23.43;15.57;;;4.30;93.50;;;;;;5030681;28;20232;-38
2022/03/04 05:31:58;;;;;;;20.93;15.03;;;4.40;93.50;;;;;;5018327;28;20239;-38
2022/03/04 05:34:25;;;;;;;23.03;15.37;;;4.30;93.50;;;;;;5011641;28;20263;-38
2022/03/04 05:36:55;;;;;;;23.60;15.70;;;4.30;93.50;;;;;;5011294;28;20212;-38
2022/03/04 05:39:25;;;;;;;23.30;15.97;;;4.30;93.50;;;;;;5030234;28;20221;-38
2022/03/04 05:41:54;;;;;;;23.00;15.83;;;4.30;93.50;;;;;;5028422;28;20243;-38
2022/03/04 05:44:21;;;;;;;24.50;16.87;;;4.30;93.50;;;;;;5022216;28;20203;-38
2022/03/04 05:46:51;;;;;;;24.53;16.03;;;4.30;93.60;;;;;;5028580;28;20351;-38
2022/03/04 05:49:21;;;;;;;24.93;16.23;;;4.30;93.60;;;;;;5019849;28;20663;-38
2022/03/04 05:51:51;;;;;;;25.10;15.67;;;4.20;93.60;;;;;;5026512;28;20259;-38
2022/03/04 05:54:18;;;;;;;26.57;15.83;;;4.20;93.50;;;;;;5014000;28;20344;-38
2022/03/04 05:56:47;;;;;;;24.13;16.07;;;4.20;93.50;;;;;;5008122;28;20193;-38
2022/03/04 05:59:15;;;;;;;26.60;16.67;;;4.10;93.50;;;;;;5028968;28;20640;-38
2022/03/04 06:01:42;;;;;;;26.13;16.20;;;4.10;93.60;;;;;;5024717;28;20758;-38
2022/03/04 06:04:14;;;;;;;23.83;15.60;;;4.10;93.60;;;;;;5029647;28;20259;-38
2022/03/04 06:06:41;;;;;;;24.93;16.73;;;4.10;93.60;;;;;;5025296;28;20252;-38
2022/03/04 06:09:10;;;;;;;23.67;16.33;;;4.10;93.60;;;;;;5029103;28;20217;-38
2022/03/04 06:11:38;;;;;;;21.47;15.60;;;4.10;93.60;;;;;;5021497;28;20249;-38
2022/03/04 06:14:07;;;;;;;23.13;15.70;;;4.00;93.50;;;;;;5021159;28;20802;-38
2022/03/04 06:16:34;;;;;;;22.93;15.10;;;4.00;93.60;;;;;;5004086;28;20742;-38
2022/03/04 06:19:04;;;;;;;25.97;16.37;;;4.00;93.50;;;;;;4999989;28;20200;-38
2022/03/04 06:21:31;;;;;;;24.03;15.23;;;4.00;93.50;;;;;;5019516;28;20246;-38
2022/03/04 06:24:01;;;;;;;23.63;15.57;;;4.00;93.60;;;;;;5026257;28;20754;-38
2022/03/04 06:26:30;;;;;;;22.73;15.67;;;3.90;93.50;;;;;;5024714;28;20304;-38
2022/03/04 06:29:00;;;;;;;20.67;15.00;;;4.00;93.50;;;;;;5004796;28;20642;-38
2022/03/04 06:31:27;;;;;;;21.57;14.83;;;3.90;93.50;;;;;;5026034;28;20207;-38
2022/03/04 06:33:57;;;;;;;22.60;15.07;;;4.00;93.50;;;;;;5022373;28;20228;-38
2022/03/04 06:36:24;;;;;;;24.77;15.80;;;3.90;93.50;;;;;;5007787;28;20629;-38
2022/03/04 06:38:52;;;;;;;24.47;16.23;;;3.90;93.50;;;;;;5010338;28;20228;-38
2022/03/04 06:41:21;;;;;;;23.20;15.10;;;4.00;93.50;;;;;;5018360;28;20215;-38
2022/03/04 06:43:51;;;;;;;25.30;16.10;;;3.90;93.50;;;;;;5014526;28;20210;-38
2022/03/04 06:46:20;;;;;;;23.43;15.97;;;4.00;93.60;;;;;;5015354;28;20288;-38
2022/03/04 06:48:48;;;;;;;22.67;15.67;;;3.90;93.50;;;;;;5026453;28;20320;-38
2022/03/04 06:51:15;;;;;;;24.07;15.50;;;3.90;93.50;;;;;;5004697;28;20201;-38
2022/03/04 06:53:42;;;;;;;27.37;15.63;;;3.90;93.50;;;;;;5017401;28;20244;-38
2022/03/04 06:56:10;;;;;;;23.57;15.47;;;3.90;93.50;;;;;;5013939;28;20285;-38
2022/03/04 06:58:40;;;;;;;21.83;15.37;;;3.90;93.50;;;;;;5019035;28;20296;-38
2022/03/04 07:01:09;;;;;;;24.47;15.17;;;3.90;93.50;;;;;;5021247;28;20679;-38
2022/03/04 07:03:37;;;;;;;26.43;15.10;;;3.90;93.50;;;;;;4991594;28;20241;-38
2022/03/04 07:06:07;;;;;;;30.40;14.80;;;3.90;93.50;;;;;;5024743;28;20204;-38
2022/03/04 07:08:39;;;;;;;26.13;15.10;;;4.00;93.60;;;;;;5026402;28;20213;-38
2022/03/04 07:11:08;;;;;;;27.23;14.90;;;4.00;93.60;;;;;;5008055;28;20198;-39
2022/03/04 07:13:37;;;;;;;26.97;16.17;;;4.00;93.60;;;;;;5021675;28;20304;-38
2022/03/04 07:16:07;;;;;;;25.20;15.40;;;4.10;93.70;;;;;;5006920;28;20225;-38
2022/03/04 07:18:35;;;;;;;24.00;14.80;;;4.10;93.70;;;;;;5015809;28;20586;-38
2022/03/04 07:21:07;;;;;;;22.23;14.47;;;4.10;93.70;;;;;;5020527;28;20205;-38
2022/03/04 07:23:35;;;;;;;23.43;15.90;;;4.10;94.10;;;;;;5001432;28;20692;-38
2022/03/04 07:26:08;;;;;;;25.47;15.50;;;4.10;93.70;;;;;;5026186;28;20205;-39
2022/03/04 07:28:38;;;;;;;24.83;15.30;;;4.10;93.80;;;;;;5015464;28;20213;-38
2022/03/04 07:31:05;;;;;;;25.07;16.43;;;4.20;93.80;;;;;;5022009;28;20709;-38
2022/03/04 07:33:36;;;;;;;25.73;14.47;;;4.20;93.80;;;;;;5008056;28;20220;-38
2022/03/04 07:36:06;;;;;;;26.20;14.83;;;4.20;93.80;;;;;;5027179;28;20776;-38
2022/03/04 07:38:34;;;;;;;22.67;14.90;;;4.20;93.90;;;;;;5021275;28;20659;-38
2022/03/04 07:41:02;;;;;;;30.87;15.47;;;4.20;93.80;;;;;;5021945;28;20207;-39
2022/03/04 07:43:29;;;;;;;24.20;13.97;;;4.20;93.90;;;;;;5022164;28;20197;-38
2022/03/04 07:45:58;;;;;;;25.00;15.37;;;4.30;93.90;;;;;;5026484;28;20208;-38
2022/03/04 07:48:27;;;;;;;23.40;14.23;;;4.30;93.90;;;;;;5025963;28;20662;-38
2022/03/04 07:51:00;;;;;;;20.77;14.87;;;4.40;94.00;;;;;;5027878;28;20218;-38
2022/03/04 07:53:30;;;;;;;22.47;14.30;;;4.40;94.00;;;;;;5017070;28;20290;-38
2022/03/04 07:55:57;;;;;;;21.97;14.67;;;4.50;94.00;;;;;;5027314;28;20725;-38
2022/03/04 07:58:26;;;;;;;21.90;15.30;;;4.50;94.00;;;;;;5025962;28;20222;-38
2022/03/04 08:00:55;;;;;;;23.27;15.33;;;4.60;94.10;;;;;;5016117;28;20240;-38
2022/03/04 08:03:46;;;;;;;21.87;14.90;;;4.60;94.10;;;;;;5015641;28;20201;-38
2022/03/04 08:06:19;;;;;;;23.03;15.57;;;4.70;94.20;;;;;;5007803;28;20809;-38
2022/03/04 08:08:46;;;;;;;22.97;14.93;;;4.70;94.40;;;;;;5004937;28;20199;-38
2022/03/04 08:11:13;;;;;;;24.23;15.60;;;4.70;94.30;;;;;;5026698;28;20204;-38
2022/03/04 08:13:41;;;;;;;26.37;16.20;;;4.80;94.30;;;;;;5011909;28;20703;-38
2022/03/04 08:16:08;;;;;;;21.03;14.33;;;4.80;94.30;;;;;;4994059;28;20233;-38
2022/03/04 08:18:38;;;;;;;19.27;13.77;;;4.90;94.40;;;;;;5023825;28;20211;-38
2022/03/04 08:21:08;;;;;;;23.47;14.87;;;5.00;94.40;;;;;;5026512;28;20570;-39
2022/03/04 08:23:37;;;;;;;20.30;13.83;;;5.00;94.40;;;;;;5025040;28;20229;-38
2022/03/04 08:26:08;;;;;;;19.87;13.80;;;5.10;94.40;;;;;;5024466;28;20219;-38
2022/03/04 08:28:35;;;;;;;19.00;13.50;;;5.20;94.70;;;;;;5009620;28;20263;-40
2022/03/04 08:31:11;;;;;;;21.10;13.23;;;5.30;94.50;;;;;;5026489;28;20292;-38
2022/03/04 08:33:41;;;;;;;21.00;13.47;;;5.30;94.60;;;;;;5018016;28;20420;-39
2022/03/04 08:36:09;;;;;;;20.13;13.23;;;5.40;94.60;;;;;;5026893;28;20659;-38
2022/03/04 08:38:37;;;;;;;22.13;13.00;;;5.40;94.60;;;;;;5025407;28;20282;-38
2022/03/04 08:41:07;;;;;;;19.03;13.03;;;5.50;94.70;;;;;;5022322;28;20283;-38
2022/03/04 08:43:35;;;;;;;20.87;12.73;;;5.60;94.80;;;;;;5022386;28;20250;-37
2022/03/04 08:46:05;;;;;;;18.20;13.30;;;5.70;94.80;;;;;;5014665;28;20263;-38
2022/03/04 08:48:35;;;;;;;18.70;13.50;;;5.70;94.80;;;;;;5025899;28;20203;-36
2022/03/04 08:51:05;;;;;;;18.30;12.60;;;5.80;94.90;;;;;;5020823;28;20226;-37
2022/03/04 08:53:38;;;;;;;22.43;13.70;;;5.90;94.90;;;;;;5025951;28;20790;-37
2022/03/04 08:56:08;;;;;;;21.73;13.57;;;5.90;95.00;;;;;;5011312;28;20327;-37
2022/03/04 08:58:38;;;;;;;20.57;13.37;;;6.00;95.00;;;;;;5020297;28;20676;-37
2022/03/04 09:01:05;;;;;;;22.77;12.97;;;6.10;95.10;;;;;;5025282;28;20219;-37
2022/03/04 09:03:33;;;;;;;20.13;13.10;;;6.20;95.10;;;;;;5019772;28;20228;-37
2022/03/04 09:06:03;;;;;;;17.80;12.43;;;6.20;95.10;;;;;;5016679;28;20297;-37
2022/03/04 09:08:32;;;;;;;19.23;12.80;;;6.30;95.10;;;;;;5012810;28;20216;-37
2022/03/04 09:11:00;;;;;;;19.20;12.97;;;6.40;95.20;;;;;;5018219;28;20640;-37
2022/03/04 09:13:32;;;;;;;20.93;13.93;;;6.50;95.30;;;;;;5022937;28;20677;-39
2022/03/04 09:16:04;;;;;;;21.57;12.90;;;6.50;95.30;;;;;;5020158;28;20695;-39
2022/03/04 09:18:31;;;;;;;19.17;13.47;;;6.60;95.40;;;;;;5008644;28;20217;-40
2022/03/04 09:20:59;;;;;;;17.87;12.27;;;6.70;95.40;;;;;;5030322;28;20232;-38
2022/03/04 09:23:31;;;;;;;18.60;12.60;;;6.80;95.50;;;;;;5019803;28;20238;-38
2022/03/04 09:26:01;;;;;;;18.87;12.77;;;6.80;95.50;;;;;;5021968;28;20318;-38
2022/03/04 09:28:30;;;;;;;18.57;13.17;;;6.90;95.60;;;;;;5040046;28;20215;-38
2022/03/04 09:30:58;;;;;;;18.17;12.63;;;7.00;95.60;;;;;;5016632;28;20211;-38
2022/03/04 09:33:28;;;;;;;15.50;11.17;;;7.00;95.60;;;;;;4993089;28;20193;-38
2022/03/04 09:35:55;;;;;;;16.43;11.73;;;7.10;95.70;;;;;;5011283;28;20311;-38
2022/03/04 09:38:24;;;;;;;18.50;13.03;;;7.20;95.80;;;;;;5026646;28;20201;-38
2022/03/04 09:40:52;;;;;;;20.63;13.30;;;7.20;95.70;;;;;;5012408;28;20671;-39
2022/03/04 09:43:24;;;;;;;19.83;12.60;;;7.20;95.80;;;;;;5017061;28;20775;-38
2022/03/04 09:45:51;;;;;;;18.23;11.77;;;7.40;95.90;;;;;;5028098;28;20215;-38
2022/03/04 09:48:22;;;;;;;19.60;11.67;;;7.40;95.90;;;;;;5029429;28;20299;-38
2022/03/04 09:50:51;;;;;;;17.90;12.57;;;7.50;96.00;;;;;;5026458;28;20252;-38
2022/03/04 09:53:38;;;;;;;19.30;11.77;;;7.60;96.00;;;;;;5020877;28;20704;-38
2022/03/04 09:56:07;;;;;;;16.50;11.17;;;7.60;96.00;;;;;;5029511;28;20586;-38
2022/03/04 09:58:42;;;;;;;20.63;11.60;;;7.70;96.10;;;;;;5002373;28;20217;-37
2022/03/04 10:01:13;;;;;;;15.70;10.93;;;7.70;96.10;;;;;;4992774;28;20217;-39
2022/03/04 10:03:50;;;;;;;13.97;10.50;;;7.80;96.20;;;;;;5019043;28;20216;-40
2022/03/04 10:06:19;;;;;;;19.53;11.73;;;7.80;96.20;;;;;;5028286;28;20596;-40
2022/03/04 10:08:50;;;;;;;15.47;11.37;;;7.90;96.20;;;;;;5010445;28;20697;-39
2022/03/04 10:11:27;;;;;;;14.17;10.47;;;7.90;96.20;;;;;;4995415;28;20240;-39
2022/03/04 10:13:57;;;;;;;15.37;10.43;;;8.00;96.30;;;;;;5019476;28;20311;-39
2022/03/04 10:16:28;;;;;;;17.87;10.43;;;8.10;96.30;;;;;;5019066;28;20592;-40
2022/03/04 10:19:14;;;;;;;16.53;11.00;;;8.10;96.30;;;;;;4995761;28;20243;-39
2022/03/04 10:21:55;;;;;;;16.10;11.10;;;8.20;96.40;;;;;;5022363;28;20247;-40
2022/03/04 10:24:36;;;;;;;14.57;11.00;;;8.20;96.40;;;;;;5015495;28;20570;-39
2022/03/04 10:27:14;;;;;;;14.80;11.30;;;8.30;96.50;;;;;;5008064;28;20228;-40
2022/03/04 10:29:46;;;;;;;15.80;11.10;;;8.40;96.80;;;;;;5028955;28;20201;-40
2022/03/04 10:32:26;;;;;;;17.03;11.07;;;8.40;96.50;;;;;;4995019;28;20226;-39
2022/03/04 10:34:58;;;;;;;17.27;10.90;;;8.50;96.60;;;;;;5019850;28;20212;-40
2022/03/04 10:37:41;;;;;;;18.30;12.07;;;8.50;96.60;;;;;;5011903;28;20635;-39
2022/03/04 10:40:11;;;;;;;16.90;11.53;;;8.60;96.70;;;;;;5026684;28;20611;-38
2022/03/04 10:42:52;;;;;;;14.63;11.07;;;8.70;96.70;;;;;;5027200;28;20204;-40
2022/03/04 10:45:32;;;;;;;19.17;11.70;;;8.70;96.70;;;;;;5017908;28;20901;-40
2022/03/04 10:48:14;;;;;;;14.63;11.37;;;8.70;96.80;;;;;;5008786;28;20212;-40
2022/03/04 10:50:49;;;;;;;13.70;10.33;;;8.80;96.80;;;;;;5015365;28;20213;-39
2022/03/04 10:53:18;;;;;;;15.40;10.97;;;8.90;96.80;;;;;;5022217;28;20224;-39
2022/03/04 10:55:50;;;;;;;15.03;10.83;;;8.90;96.80;;;;;;5012052;28;20232;-39
2022/03/04 10:58:36;;;;;;;16.73;11.27;;;9.00;96.90;;;;;;5025211;28;20208;-40
2022/03/04 11:01:09;;;;;;;16.40;11.63;;;9.10;97.00;;;;;;5001557;28;20201;-40
2022/03/04 11:03:41;;;;;;;18.93;12.17;;;9.10;97.00;;;;;;5008268;28;20556;-40
2022/03/04 11:06:14;;;;;;;14.27;11.00;;;9.20;97.00;;;;;;5024710;28;20217;-40
2022/03/04 11:08:44;;;;;;;13.40;11.17;;;9.30;97.10;;;;;;4993306;28;20589;-40
2022/03/04 11:11:14;;;;;;;18.33;12.43;;;9.30;97.10;;;;;;5012468;28;20940;-40
2022/03/04 11:13:44;;;;;;;14.70;11.63;;;9.40;97.20;;;;;;5025213;28;20211;-40
2022/03/04 11:16:14;;;;;;;17.77;12.27;;;9.40;97.20;;;;;;5023295;28;20252;-38
2022/03/04 11:18:42;;;;;;;16.23;11.40;;;9.50;97.20;;;;;;5022238;28;20267;-38
2022/03/04 11:21:12;;;;;;;16.23;11.37;;;9.50;97.30;;;;;;5020371;28;20785;-38
2022/03/04 11:23:41;;;;;;;14.93;11.57;;;9.60;97.30;;;;;;5022734;28;20307;-39
2022/03/04 11:26:21;;;;;;;14.40;10.97;;;9.60;97.30;;;;;;5017060;28;20324;-38
2022/03/04 11:28:50;;;;;;;14.13;11.00;;;9.70;97.40;;;;;;5020546;28;20216;-38
2022/03/04 11:31:22;;;;;;;13.97;10.83;;;9.80;97.50;;;;;;5016961;28;20205;-38
2022/03/04 11:33:58;;;;;;;16.33;11.60;;;9.80;97.50;;;;;;5008066;28;20292;-38
2022/03/04 11:36:27;;;;;;;15.73;11.07;;;9.90;97.50;;;;;;4996653;28;20460;-37
2022/03/04 11:39:08;;;;;;;15.87;11.30;;;9.90;97.50;;;;;;5008777;28;20231;-37
2022/03/04 11:41:45;;;;;;;15.67;11.30;;;10.00;97.10;;;;;;5000965;28;20267;-37
2022/03/04 11:44:22;;;;;;;14.83;11.10;;;10.00;97.10;;;;;;5021343;28;20201;-40
2022/03/04 11:47:00;;;;;;;14.73;11.13;;;10.10;97.10;;;;;;5021343;28;20200;-39
2022/03/04 11:49:43;;;;;;;15.43;11.30;;;10.20;97.20;;;;;;5026707;28;20497;-38
2022/03/04 11:52:21;;;;;;;14.40;10.53;;;10.20;97.20;;;;;;5008290;28;20314;-37
2022/03/04 11:54:48;;;;;;;13.43;10.23;;;10.30;97.30;;;;;;5008475;28;20209;-38
2022/03/04 11:57:22;;;;;;;15.43;10.70;;;10.30;97.30;;;;;;4991459;28;20258;-37
2022/03/04 11:59:58;;;;;;;14.87;10.83;;;10.40;97.40;;;;;;4985567;28;20336;-36
2022/03/04 12:02:36;;;;;;;16.17;11.40;;;10.40;97.30;;;;;;4997230;28;20240;-37
2022/03/04 12:05:15;;;;;;;16.63;10.87;;;10.50;97.40;;;;;;5042439;28;20342;-37
2022/03/04 12:07:48;;;;;;;17.73;12.00;;;10.50;97.40;;;;;;5031894;28;20207;-37
2022/03/04 12:10:21;;;;;;;17.93;11.37;;;10.50;97.30;;;;;;5045575;28;20589;-37
2022/03/04 12:13:09;;;;;;;18.43;12.23;;;10.60;97.40;;;;;;5030498;28;20205;-37
2022/03/04 12:15:44;;;;;;;13.33;10.43;;;10.60;97.40;;;;;;5023807;28;20250;-37
2022/03/04 12:18:16;;;;;;;14.30;10.40;;;10.70;97.40;;;;;;5010265;28;20188;-38
2022/03/04 12:20:45;;;;;;;12.60;10.23;;;10.70;97.40;;;;;;5039418;28;20294;-38
2022/03/04 12:23:26;;;;;;;15.73;11.47;;;10.80;97.50;;;;;;5045879;28;20308;-37
2022/03/04 12:25:53;;;;;;;12.17;10.50;;;10.80;97.40;;;;;;5047734;28;20298;-37
2022/03/04 12:28:25;;;;;;;16.37;10.63;;;10.90;97.40;;;;;;5046800;28;20196;-37
2022/03/04 12:31:01;;;;;;;13.23;10.17;;;10.90;97.50;;;;;;5046442;28;20200;-36
2022/03/04 12:33:36;;;;;;;13.00;10.33;;;10.90;97.50;;;;;;5028021;28;20227;-37
2022/03/04 12:36:08;;;;;;;14.77;10.63;;;11.00;97.50;;;;;;5038584;28;20216;-37
2022/03/04 12:38:39;;;;;;;20.47;12.07;;;10.90;97.40;;;;;;5026210;28;20672;-37
2022/03/04 12:41:15;;;;;;;14.47;9.83;;;11.00;97.50;;;;;;5031362;28;20216;-37
2022/03/04 12:43:51;;;;;;;13.27;8.70;;;11.00;97.50;;;;;;5048331;28;20196;-37
2022/03/04 12:46:23;;;;;;;13.07;9.40;;;11.00;97.40;;;;;;5029893;28;20296;-37
2022/03/04 12:48:52;;;;;;;15.03;9.13;;;11.10;97.40;;;;;;5034802;28;20653;-36
2022/03/04 12:51:31;;;;;;;12.70;8.83;;;11.10;97.40;;;;;;5017414;28;20217;-36